Time;durP1;ratioP1;P1;durP2;ratioP2;P2;SDS_P1;SDS_P2;PMS_P1;PMS_P2;Temp;Humidity;BMP_temperature;BMP_pressure;BME280_temperature;BME280_humidity;BME280_pressure;Samples;Min_cycle;Max_cycle;Signal;HPM_P1;HPM_P2
2023/09/06 00:00:45;;;;;;;6.03;4.25;;;;;;;15.96;100.00;97701.09;5111142;28;20400;-74
2023/09/06 00:03:12;;;;;;;5.75;3.63;;;;;;;15.95;100.00;97699.50;5110933;28;20400;-74
2023/09/06 00:05:42;;;;;;;6.72;4.05;;;;;;;15.92;100.00;97702.75;5111124;28;20392;-74
2023/09/06 00:08:09;;;;;;;5.47;3.78;;;;;;;15.92;100.00;97707.28;5111231;28;20399;-74
2023/09/06 00:10:38;;;;;;;5.53;3.50;;;;;;;15.91;100.00;97708.34;5111142;28;20419;-74
2023/09/06 00:13:06;;;;;;;5.72;4.18;;;;;;;15.86;100.00;97707.28;5110758;28;20418;-74
2023/09/06 00:15:33;;;;;;;6.50;4.75;;;;;;;15.83;100.00;97704.41;5110828;28;20840;-74
2023/09/06 00:17:59;;;;;;;7.60;4.47;;;;;;;15.80;100.00;97700.41;5111000;28;20403;-74
2023/09/06 00:20:25;;;;;;;5.43;3.90;;;;;;;15.77;100.00;97708.19;5110763;28;20550;-71
2023/09/06 00:22:58;;;;;;;5.38;3.80;;;;;;;15.72;100.00;97700.19;5110744;28;20810;-74
2023/09/06 00:25:26;;;;;;;5.22;3.60;;;;;;;15.72;100.00;97697.50;5110983;28;20393;-74
2023/09/06 00:27:53;;;;;;;5.43;4.03;;;;;;;15.71;100.00;97703.94;5114970;28;20459;-73
2023/09/06 00:30:20;;;;;;;5.10;4.00;;;;;;;15.67;100.00;97701.03;5131441;27;20887;-74
2023/09/06 00:32:47;;;;;;;11.18;4.28;;;;;;;15.65;100.00;97697.81;5131125;27;20394;-74
2023/09/06 00:35:16;;;;;;;5.65;4.18;;;;;;;15.60;100.00;97700.53;5131309;27;20390;-74
2023/09/06 00:37:43;;;;;;;6.22;4.43;;;;;;;15.55;100.00;97694.44;5131106;27;20888;-74
2023/09/06 00:40:22;;;;;;;7.53;4.50;;;;;;;15.48;100.00;97695.50;5131152;27;20411;-74
2023/09/06 00:42:50;;;;;;;5.37;4.07;;;;;;;15.44;100.00;97693.63;5131116;27;20399;-74
2023/09/06 00:45:21;;;;;;;5.78;4.10;;;;;;;15.39;100.00;97697.13;5131193;27;20398;-74
2023/09/06 00:47:48;;;;;;;6.15;4.35;;;;;;;15.34;100.00;97694.47;5130223;28;20497;-74
2023/09/06 00:50:16;;;;;;;6.28;4.68;;;;;;;15.29;100.00;97696.38;5131010;27;20399;-74
2023/09/06 00:52:44;;;;;;;6.05;4.22;;;;;;;15.26;100.00;97696.94;5130826;27;20394;-74
2023/09/06 00:55:13;;;;;;;6.07;4.40;;;;;;;15.23;100.00;97697.47;5134925;27;20455;-74
2023/09/06 00:57:42;;;;;;;5.55;4.40;;;;;;;15.20;100.00;97695.34;5135183;27;20390;-74
2023/09/06 01:00:17;;;;;;;6.97;4.43;;;;;;;15.16;100.00;97703.09;5135264;27;20498;-74
2023/09/06 01:02:44;;;;;;;5.45;3.90;;;;;;;15.14;100.00;97696.44;5134701;27;20492;-74
2023/09/06 01:05:10;;;;;;;6.30;4.32;;;;;;;15.12;100.00;97696.69;5135168;27;20864;-74
2023/09/06 01:07:39;;;;;;;8.18;4.60;;;;;;;15.10;100.00;97697.00;5135046;27;20390;-74
2023/09/06 01:10:08;;;;;;;6.30;4.22;;;;;;;15.07;100.00;97694.06;5135112;27;20390;-74
2023/09/06 01:12:36;;;;;;;7.32;4.07;;;;;;;15.04;100.00;97698.06;5134620;27;20401;-74
2023/09/06 01:15:03;;;;;;;5.73;4.20;;;;;;;15.00;100.00;97697.03;5135218;27;20402;-74
2023/09/06 01:17:33;;;;;;;6.80;4.23;;;;;;;14.95;100.00;97698.91;5135065;27;20423;-74
2023/09/06 01:20:09;;;;;;;5.55;4.22;;;;;;;14.90;100.00;97699.69;5135011;27;20421;-74
2023/09/06 01:22:41;;;;;;;6.68;4.18;;;;;;;14.88;100.00;97695.72;5134519;27;20394;-74
2023/09/06 01:25:11;;;;;;;6.82;4.00;;;;;;;14.87;100.00;97697.59;5134940;27;20387;-73
2023/09/06 01:27:38;;;;;;;4.90;3.58;;;;;;;14.88;100.00;97687.72;5134692;27;20390;-74
2023/09/06 01:30:07;;;;;;;5.88;4.00;;;;;;;14.87;100.00;97686.94;5133367;27;20451;-74
2023/09/06 01:32:34;;;;;;;8.57;4.00;;;;;;;14.82;100.00;97689.59;5134445;27;20394;-74
2023/09/06 01:35:00;;;;;;;5.22;3.92;;;;;;;14.80;100.00;97694.41;5134941;27;20438;-73
2023/09/06 01:37:26;;;;;;;7.18;4.32;;;;;;;14.76;100.00;97690.69;5134809;27;20408;-73
2023/09/06 01:39:53;;;;;;;4.97;3.90;;;;;;;14.69;100.00;97680.31;5134757;27;20415;-73
2023/09/06 01:42:22;;;;;;;6.05;4.20;;;;;;;14.64;100.00;97688.31;5134494;27;20421;-73
2023/09/06 01:44:48;;;;;;;6.63;4.43;;;;;;;14.60;100.00;97683.78;5134435;27;20405;-73
2023/09/06 01:47:14;;;;;;;6.07;4.22;;;;;;;14.57;100.00;97685.13;5134906;27;20721;-73
2023/09/06 01:49:44;;;;;;;6.45;3.95;;;;;;;14.56;100.00;97678.22;5134471;27;20910;-73
2023/09/06 01:52:10;;;;;;;5.60;4.22;;;;;;;14.55;100.00;97686.47;5134439;27;20895;-74
2023/09/06 01:54:37;;;;;;;5.13;3.90;;;;;;;14.55;100.00;97681.94;5134546;27;20900;-73
2023/09/06 01:57:03;;;;;;;6.50;4.30;;;;;;;14.53;100.00;97677.94;5134574;27;20422;-73
2023/09/06 01:59:31;;;;;;;5.25;3.92;;;;;;;14.50;100.00;97676.63;5134140;27;20414;-74
2023/09/06 02:01:57;;;;;;;6.18;4.13;;;;;;;14.47;100.00;97690.47;5134006;27;20473;-73
2023/09/06 02:04:24;;;;;;;5.60;4.07;;;;;;;14.46;100.00;97683.53;5134251;27;20418;-73
2023/09/06 02:06:50;;;;;;;7.25;4.75;;;;;;;14.44;100.00;97685.66;5133381;27;20394;-73
2023/09/06 02:09:17;;;;;;;6.47;4.60;;;;;;;14.40;100.00;97681.16;5134199;27;20475;-74
2023/09/06 02:11:44;;;;;;;4.80;3.88;;;;;;;14.40;100.00;97678.50;5133801;27;20532;-73
2023/09/06 02:14:10;;;;;;;7.90;4.87;;;;;;;14.36;100.00;97685.41;5134158;27;20467;-73
2023/09/06 02:16:37;;;;;;;7.20;4.57;;;;;;;14.28;100.00;97681.41;5133873;27;20544;-73
2023/09/06 02:19:06;;;;;;;6.47;4.47;;;;;;;14.25;100.00;97688.06;5133876;27;20476;-73
2023/09/06 02:21:34;;;;;;;6.20;4.50;;;;;;;14.21;100.00;97680.84;5133709;27;20886;-73
2023/09/06 02:24:00;;;;;;;6.50;4.13;;;;;;;14.21;100.00;97689.63;5133924;27;20503;-74
2023/09/06 02:26:26;;;;;;;8.15;4.43;;;;;;;14.20;100.00;97682.75;5133621;27;20406;-74
2023/09/06 02:28:52;;;;;;;6.95;4.03;;;;;;;14.19;100.00;97685.66;5133819;27;20422;-73
2023/09/06 02:31:18;;;;;;;5.38;3.90;;;;;;;14.15;100.00;97685.38;5133502;27;20427;-73
2023/09/06 02:33:46;;;;;;;6.85;4.53;;;;;;;14.12;100.00;97685.94;5133470;27;20394;-73
2023/09/06 02:36:13;;;;;;;7.55;4.95;;;;;;;14.08;100.00;97678.72;5133427;27;20395;-73
2023/09/06 02:38:39;;;;;;;5.88;3.97;;;;;;;14.04;100.00;97683.78;5133538;27;20805;-73
2023/09/06 02:41:05;;;;;;;5.97;4.07;;;;;;;14.04;100.00;97683.00;5132203;27;20485;-74
2023/09/06 02:43:31;;;;;;;6.20;4.43;;;;;;;14.00;100.00;97684.56;5133566;27;20446;-73
2023/09/06 02:46:02;;;;;;;5.97;4.15;;;;;;;14.00;100.00;97685.38;5133513;27;20402;-73
2023/09/06 02:48:29;;;;;;;4.50;3.40;;;;;;;14.00;100.00;97685.38;5133631;27;20749;-73
2023/09/06 02:50:58;;;;;;;6.78;4.47;;;;;;;13.98;100.00;97692.06;5133652;27;20752;-73
2023/09/06 02:53:26;;;;;;;8.23;4.72;;;;;;;13.94;100.00;97684.59;5132884;27;20406;-73
2023/09/06 02:55:53;;;;;;;6.25;4.00;;;;;;;13.94;100.00;97686.44;5133086;27;20474;-73
2023/09/06 02:58:23;;;;;;;6.72;3.90;;;;;;;13.89;100.00;97676.59;5133370;27;20402;-73
2023/09/06 03:00:49;;;;;;;6.65;3.97;;;;;;;13.87;100.00;97680.59;5133103;27;20413;-73
2023/09/06 03:03:18;;;;;;;5.50;4.07;;;;;;;13.85;100.00;97683.50;5132605;27;20402;-73
2023/09/06 03:05:44;;;;;;;8.68;4.72;;;;;;;13.79;100.00;97681.91;5132979;27;20826;-73
2023/09/06 03:08:14;;;;;;;6.20;4.25;;;;;;;13.75;100.00;97672.06;5132901;27;20433;-73
2023/09/06 03:10:41;;;;;;;7.38;4.93;;;;;;;13.70;100.00;97680.81;5132726;27;20387;-73
2023/09/06 03:13:10;;;;;;;6.88;4.45;;;;;;;13.68;100.00;97679.50;5132647;27;20942;-74
2023/09/06 03:15:37;;;;;;;8.35;4.53;;;;;;;13.67;100.00;97680.56;5132757;27;20447;-73
2023/09/06 03:18:05;;;;;;;7.70;4.50;;;;;;;13.64;100.00;97678.41;5131626;27;20438;-73
2023/09/06 03:20:32;;;;;;;7.65;4.53;;;;;;;13.61;100.00;97679.72;5132649;27;20818;-73
2023/09/06 03:23:00;;;;;;;7.00;4.68;;;;;;;13.59;100.00;97684.53;5132449;27;20406;-73
2023/09/06 03:25:29;;;;;;;8.15;4.57;;;;;;;13.57;100.00;97689.31;5131260;27;20399;-73
2023/09/06 03:28:01;;;;;;;5.88;4.30;;;;;;;13.55;100.00;97688.75;5132586;27;20697;-74
2023/09/06 03:30:30;;;;;;;6.40;4.60;;;;;;;13.51;100.00;97683.19;5132516;27;20397;-73
2023/09/06 03:32:57;;;;;;;9.45;5.20;;;;;;;13.49;100.00;97685.31;5132223;27;20402;-73
2023/09/06 03:35:23;;;;;;;8.65;4.80;;;;;;;13.48;100.00;97689.00;5132548;27;20391;-73
2023/09/06 03:37:49;;;;;;;7.17;4.87;;;;;;;13.46;100.00;97685.81;5132361;27;20463;-73
2023/09/06 03:40:28;;;;;;;6.32;4.25;;;;;;;13.45;100.00;97686.09;5132398;27;20833;-73
2023/09/06 03:42:57;;;;;;;10.27;5.05;;;;;;;13.42;100.00;97687.41;5132041;27;20414;-73
2023/09/06 03:45:24;;;;;;;8.30;4.85;;;;;;;13.42;100.00;97691.94;5132283;27;20907;-73
2023/09/06 03:47:51;;;;;;;5.97;4.20;;;;;;;13.42;100.00;97694.59;5132115;27;20399;-74
2023/09/06 03:50:20;;;;;;;7.43;5.32;;;;;;;13.40;100.00;97686.06;5132220;27;20444;-73
2023/09/06 03:52:46;;;;;;;6.85;4.85;;;;;;;13.38;100.00;97686.31;5131743;27;20413;-73
2023/09/06 03:55:12;;;;;;;6.82;4.30;;;;;;;13.39;100.00;97687.91;5131993;27;20406;-73
2023/09/06 03:57:39;;;;;;;8.27;5.00;;;;;;;13.38;100.00;97685.53;5131929;27;20403;-73
2023/09/06 04:00:24;;;;;;;5.70;4.38;;;;;;;13.35;100.00;97689.50;5131911;27;20413;-73
2023/09/06 04:02:53;;;;;;;6.57;4.65;;;;;;;13.34;100.00;97679.94;5131728;27;20386;-74
2023/09/06 04:05:25;;;;;;;7.53;4.82;;;;;;;13.34;100.00;97679.13;5132350;27;20399;-73
2023/09/06 04:07:53;;;;;;;6.50;4.75;;;;;;;13.35;100.00;97688.72;5123447;27;20725;-73
2023/09/06 04:10:21;;;;;;;6.93;4.88;;;;;;;13.33;100.00;97686.31;5131940;27;20398;-73
2023/09/06 04:12:48;;;;;;;5.35;4.00;;;;;;;13.33;100.00;97688.16;5131481;27;20390;-73
2023/09/06 04:15:16;;;;;;;9.83;5.27;;;;;;;13.31;100.00;97690.28;5131648;27;20407;-73
2023/09/06 04:17:42;;;;;;;5.30;4.25;;;;;;;13.29;100.00;97684.44;5131418;27;20398;-73
2023/09/06 04:20:18;;;;;;;6.75;4.70;;;;;;;13.27;100.00;97683.91;5130254;27;20764;-73
2023/09/06 04:22:45;;;;;;;5.55;4.00;;;;;;;13.25;100.00;97684.16;5131223;27;20398;-73
2023/09/06 04:25:11;;;;;;;6.93;4.45;;;;;;;13.26;100.00;97690.28;5131579;27;20819;-73
2023/09/06 04:27:39;;;;;;;6.97;4.95;;;;;;;13.22;100.00;97684.69;5131015;27;20397;-74
2023/09/06 04:30:09;;;;;;;7.50;5.33;;;;;;;13.22;100.00;97694.53;5131131;27;20884;-73
2023/09/06 04:32:37;;;;;;;7.43;4.70;;;;;;;13.20;100.00;97688.66;5130556;27;20409;-73
2023/09/06 04:35:04;;;;;;;8.45;5.25;;;;;;;13.17;100.00;97689.97;5131438;27;20406;-73
2023/09/06 04:37:30;;;;;;;6.75;4.78;;;;;;;13.16;100.00;97693.69;5131338;27;20391;-73
2023/09/06 04:39:56;;;;;;;8.27;5.22;;;;;;;13.13;100.00;97694.22;5131194;27;20433;-73
2023/09/06 04:42:23;;;;;;;6.50;4.35;;;;;;;13.13;100.00;97694.22;5131167;27;20425;-73
2023/09/06 04:44:49;;;;;;;6.13;4.80;;;;;;;13.11;100.00;97690.97;5124134;27;20833;-73
2023/09/06 04:47:15;;;;;;;6.95;4.95;;;;;;;13.09;100.00;97688.56;5128219;27;20398;-73
2023/09/06 04:49:45;;;;;;;7.03;5.07;;;;;;;13.08;100.00;97697.59;5125228;28;20423;-73
2023/09/06 04:52:11;;;;;;;7.15;5.13;;;;;;;13.07;100.00;97697.88;5115669;28;20386;-73
2023/09/06 04:54:37;;;;;;;7.82;5.38;;;;;;;13.06;100.00;97693.63;5126228;28;20702;-74
2023/09/06 04:57:04;;;;;;;8.57;5.03;;;;;;;13.04;100.00;97696.53;5121932;28;20396;-73
2023/09/06 04:59:33;;;;;;;6.07;4.60;;;;;;;13.04;100.00;97704.50;5118275;28;20436;-73
2023/09/06 05:01:59;;;;;;;11.80;4.80;;;;;;;13.04;100.00;97699.19;5119099;28;20407;-74
2023/09/06 05:04:25;;;;;;;9.05;4.53;;;;;;;13.04;100.00;97706.38;5117701;28;20487;-73
2023/09/06 05:06:54;;;;;;;7.38;4.65;;;;;;;13.05;100.00;97705.31;5125515;27;20551;-73
2023/09/06 05:09:21;;;;;;;7.18;5.03;;;;;;;13.04;100.00;97706.38;5119905;27;20445;-74
2023/09/06 05:11:47;;;;;;;7.22;4.63;;;;;;;13.02;100.00;97711.94;5118553;27;20423;-73
2023/09/06 05:14:14;;;;;;;8.13;5.10;;;;;;;13.00;100.00;97711.41;5125049;28;20390;-74
2023/09/06 05:16:40;;;;;;;7.05;5.10;;;;;;;13.03;100.00;97712.72;5119684;28;20752;-73
2023/09/06 05:19:06;;;;;;;6.93;5.03;;;;;;;13.00;100.00;97714.06;5116140;27;20518;-74
2023/09/06 05:21:34;;;;;;;7.05;4.55;;;;;;;13.01;100.00;97712.97;5114333;28;20893;-73
2023/09/06 05:24:02;;;;;;;5.40;4.30;;;;;;;13.03;100.00;97721.50;5115899;28;20411;-73
2023/09/06 05:26:28;;;;;;;6.50;4.90;;;;;;;13.03;100.00;97715.38;5123383;28;20735;-73
2023/09/06 05:28:55;;;;;;;7.23;4.87;;;;;;;13.03;100.00;97721.50;5127881;28;20449;-73
2023/09/06 05:31:21;;;;;;;6.18;4.25;;;;;;;13.04;100.00;97712.47;5130626;28;20786;-73
2023/09/06 05:33:47;;;;;;;5.82;4.63;;;;;;;13.07;100.00;97714.63;5130462;28;20422;-73
2023/09/06 05:36:14;;;;;;;6.60;4.38;;;;;;;13.11;100.00;97714.91;5125345;27;20494;-73
2023/09/06 05:38:40;;;;;;;7.35;4.00;;;;;;;13.16;100.00;97722.91;5125229;27;20405;-73
2023/09/06 05:41:08;;;;;;;7.77;4.23;;;;;;;13.20;100.00;97718.69;5120588;27;20395;-73
2023/09/06 05:43:34;;;;;;;5.37;4.17;;;;;;;13.25;100.00;97725.88;5127978;27;20872;-73
2023/09/06 05:46:00;;;;;;;9.15;4.80;;;;;;;13.27;100.00;97721.91;5119062;27;20996;-74
2023/09/06 05:48:27;;;;;;;9.83;4.90;;;;;;;13.32;100.00;97721.13;5131123;27;20440;-73
2023/09/06 05:50:53;;;;;;;9.32;5.43;;;;;;;13.36;100.00;97717.72;5132259;27;20398;-74
2023/09/06 05:53:19;;;;;;;8.35;5.38;;;;;;;13.45;100.00;97715.34;5131957;27;20451;-74
2023/09/06 05:55:45;;;;;;;6.82;4.40;;;;;;;13.51;100.00;97717.75;5113254;28;20966;-74
2023/09/06 05:58:13;;;;;;;7.80;4.77;;;;;;;13.60;100.00;97718.06;5113343;28;20438;-74
2023/09/06 06:00:41;;;;;;;6.25;4.93;;;;;;;13.67;100.00;97725.78;5132156;27;20414;-74
2023/09/06 06:03:08;;;;;;;8.55;4.82;;;;;;;13.74;100.00;97726.34;5133548;27;20402;-74
2023/09/06 06:05:34;;;;;;;7.28;4.88;;;;;;;13.80;100.00;97728.75;5133729;27;20417;-74
2023/09/06 06:08:00;;;;;;;6.63;4.32;;;;;;;13.86;100.00;97733.00;5133741;27;20402;-74
2023/09/06 06:10:34;;;;;;;7.20;4.72;;;;;;;13.94;100.00;97729.81;5133615;27;20415;-74
2023/09/06 06:13:00;;;;;;;7.93;5.43;;;;;;;14.05;100.00;97732.50;5133366;27;20413;-74
2023/09/06 06:15:28;;;;;;;9.45;6.25;;;;;;;14.16;100.00;97734.91;5133502;27;20390;-74
2023/09/06 06:17:54;;;;;;;8.80;5.93;;;;;;;14.28;100.00;97738.09;5133578;27;20395;-73
2023/09/06 06:20:21;;;;;;;8.13;5.90;;;;;;;14.39;100.00;97738.94;5133453;27;20415;-74
2023/09/06 06:22:47;;;;;;;9.15;5.57;;;;;;;14.49;100.00;97730.97;5133196;27;20751;-74
2023/09/06 06:25:13;;;;;;;8.20;5.57;;;;;;;14.58;100.00;97740.03;5133579;27;20395;-74
2023/09/06 06:27:40;;;;;;;7.60;5.32;;;;;;;14.67;100.00;97742.91;5133290;27;20427;-73
2023/09/06 06:30:07;;;;;;;9.20;5.07;;;;;;;14.75;100.00;97738.91;5133140;27;20456;-74
2023/09/06 06:32:35;;;;;;;8.02;5.43;;;;;;;14.83;100.00;97735.69;5132870;27;20398;-74
2023/09/06 06:35:05;;;;;;;9.68;5.35;;;;;;;14.91;100.00;97735.16;5133081;27;20477;-74
2023/09/06 06:37:32;;;;;;;6.97;5.07;;;;;;;14.99;100.00;97735.41;5133148;27;20443;-73
2023/09/06 06:39:58;;;;;;;7.03;4.80;;;;;;;15.08;100.00;97741.00;5126742;27;20527;-74
2023/09/06 06:42:25;;;;;;;6.40;3.85;;;;;;;15.18;100.00;97738.31;5120321;27;20770;-74
2023/09/06 06:44:52;;;;;;;6.32;4.30;;;;;;;15.28;100.00;97740.13;5117881;27;20396;-73
2023/09/06 06:47:18;;;;;;;5.53;4.00;;;;;;;15.37;100.00;97733.94;5111491;28;20478;-74
2023/09/06 06:49:46;;;;;;;7.38;4.88;;;;;;;15.46;100.00;97734.19;5124080;27;20403;-74
2023/09/06 06:52:12;;;;;;;6.28;4.13;;;;;;;15.53;100.00;97732.06;5132890;27;20794;-73
2023/09/06 06:54:40;;;;;;;6.38;3.85;;;;;;;15.62;100.00;97734.94;5133041;27;20394;-74
2023/09/06 06:57:07;;;;;;;7.60;4.93;;;;;;;15.67;100.00;97734.91;5132880;27;20430;-74
2023/09/06 06:59:34;;;;;;;6.40;4.63;;;;;;;15.75;100.00;97732.47;5129526;27;20443;-74
2023/09/06 07:02:00;;;;;;;6.82;4.18;;;;;;;15.82;100.00;97735.63;5123238;27;20495;-73
2023/09/06 07:04:27;;;;;;;6.83;4.20;;;;;;;15.88;100.00;97739.88;5125067;27;20613;-73
2023/09/06 07:06:54;;;;;;;6.10;4.25;;;;;;;15.95;100.00;97742.22;5126455;27;20410;-73
2023/09/06 07:09:20;;;;;;;6.80;4.32;;;;;;;16.02;100.00;97742.72;5123524;27;20393;-73
2023/09/06 07:11:47;;;;;;;5.53;3.83;;;;;;;16.11;100.00;97740.25;5127701;27;20406;-73
2023/09/06 07:14:14;;;;;;;6.35;4.15;;;;;;;16.20;100.00;97742.06;5124062;27;20774;-73
2023/09/06 07:16:40;;;;;;;7.97;4.53;;;;;;;16.30;100.00;97746.53;5126491;27;20402;-73
2023/09/06 07:19:06;;;;;;;6.60;4.05;;;;;;;16.41;100.00;97748.03;5127646;27;20443;-73
2023/09/06 07:21:32;;;;;;;8.63;5.60;;;;;;;16.47;100.00;97749.59;5125512;27;20466;-74
2023/09/06 07:24:00;;;;;;;9.90;5.50;;;;;;;16.62;100.00;97748.69;5125514;27;20436;-74
2023/09/06 07:26:26;;;;;;;6.93;4.07;;;;;;;16.77;100.00;97747.75;5124370;27;20789;-74
2023/09/06 07:28:52;;;;;;;6.85;4.88;;;;;;;16.88;100.00;97754.63;5126262;27;20399;-74
2023/09/06 07:31:19;;;;;;;10.60;4.95;;;;;;;16.97;100.00;97755.59;5122727;27;20481;-74
2023/09/06 07:33:45;;;;;;;10.30;5.10;;;;;;;17.05;100.00;97754.19;5124601;27;20599;-73
2023/09/06 07:36:13;;;;;;;6.55;4.28;;;;;;;17.19;100.00;97745.22;5126429;27;20418;-74
2023/09/06 07:38:39;;;;;;;4.90;3.70;;;;;;;17.33;100.00;97750.66;5123517;27;20845;-72
2023/09/06 07:41:07;;;;;;;5.78;3.60;;;;;;;17.46;100.00;97749.97;5124498;27;21124;-72
2023/09/06 07:43:36;;;;;;;6.22;4.00;;;;;;;17.56;100.00;97744.50;5125126;27;20400;-73
2023/09/06 07:46:03;;;;;;;5.32;3.78;;;;;;;17.68;100.00;97742.22;5125232;27;20395;-72
2023/09/06 07:48:31;;;;;;;4.93;3.42;;;;;;;17.79;100.00;97748.25;5124487;27;20441;-72
2023/09/06 07:50:58;;;;;;;5.43;3.47;;;;;;;17.89;100.00;97742.78;5125310;27;20464;-73
2023/09/06 07:53:25;;;;;;;5.03;3.30;;;;;;;18.01;100.00;97745.00;5123441;27;20758;-72
2023/09/06 07:55:53;;;;;;;4.63;3.47;;;;;;;18.09;100.00;97745.16;5122933;27;20483;-73
2023/09/06 07:58:20;;;;;;;6.18;4.20;;;;;;;18.19;100.00;97746.88;5125374;27;20451;-73
2023/09/06 08:00:47;;;;;;;4.38;3.42;;;;;;;18.28;100.00;97747.00;5124101;27;20427;-73
2023/09/06 08:03:14;;;;;;;5.65;3.50;;;;;;;18.37;100.00;97745.25;5124646;27;20475;-73
2023/09/06 08:05:40;;;;;;;4.85;3.50;;;;;;;18.46;100.00;97748.88;5122942;27;20391;-72
2023/09/06 08:08:09;;;;;;;8.40;5.00;;;;;;;18.49;100.00;97750.97;5123820;27;20402;-74
2023/09/06 08:10:36;;;;;;;8.30;4.50;;;;;;;18.58;100.00;97743.88;5124843;27;20402;-72
2023/09/06 08:13:03;;;;;;;6.85;4.00;;;;;;;18.67;100.00;97763.56;5124111;27;20534;-71
2023/09/06 08:15:31;;;;;;;9.32;4.78;;;;;;;18.73;100.00;97767.75;5124024;27;20389;-72
2023/09/06 08:17:57;;;;;;;5.25;3.97;;;;;;;18.82;100.00;97767.88;5125020;27;20394;-72
2023/09/06 08:20:24;;;;;;;5.10;3.60;;;;;;;18.91;100.00;97772.28;5123035;27;20954;-72
2023/09/06 08:22:50;;;;;;;5.10;3.78;;;;;;;19.02;100.00;97772.88;5122343;27;20479;-73
2023/09/06 08:25:17;;;;;;;6.00;3.40;;;;;;;19.10;100.00;97769.50;5125338;27;20395;-73
2023/09/06 08:27:43;;;;;;;5.30;3.42;;;;;;;19.21;100.00;97767.44;5123292;27;20403;-73
2023/09/06 08:30:11;;;;;;;4.63;3.30;;;;;;;19.32;100.00;97768.84;5126452;27;20395;-72
2023/09/06 08:32:40;;;;;;;4.28;3.08;;;;;;;19.45;100.00;97775.31;5124597;27;20413;-72
2023/09/06 08:35:07;;;;;;;5.20;3.27;;;;;;;19.56;100.00;97771.34;5123397;27;20383;-72
2023/09/06 08:37:34;;;;;;;5.07;3.40;;;;;;;19.67;100.00;97775.44;5122829;28;20395;-72
2023/09/06 08:40:00;;;;;;;5.32;3.20;;;;;;;19.77;100.00;97774.44;5122772;28;20402;-72
2023/09/06 08:42:33;;;;;;;7.88;4.82;;;;;;;19.81;100.00;97764.66;5124984;27;20399;-73
2023/09/06 08:45:01;;;;;;;5.57;3.78;;;;;;;19.89;100.00;97764.75;5125430;28;20395;-73
2023/09/06 08:47:28;;;;;;;5.03;3.42;;;;;;;19.98;100.00;97765.63;5122222;27;20392;-73
2023/09/06 08:49:56;;;;;;;5.50;3.42;;;;;;;20.07;100.00;97776.47;5131391;27;20429;-73
2023/09/06 08:52:24;;;;;;;4.93;3.45;;;;;;;20.16;100.00;97768.44;5130530;27;20906;-73
2023/09/06 08:54:52;;;;;;;5.40;3.28;;;;;;;20.26;100.00;97768.22;5127745;27;20412;-73
2023/09/06 08:57:19;;;;;;;4.20;3.08;;;;;;;20.35;100.00;97771.81;5123066;27;20390;-74
2023/09/06 08:59:46;;;;;;;3.80;2.70;;;;;;;20.42;100.00;97774.88;5124032;28;20499;-73
2023/09/06 09:02:14;;;;;;;6.85;3.45;;;;;;;20.48;100.00;97774.44;5122093;27;20881;-73
2023/09/06 09:04:42;;;;;;;4.13;2.97;;;;;;;20.56;100.00;97772.91;5124963;27;20489;-73
2023/09/06 09:07:11;;;;;;;5.17;3.07;;;;;;;20.65;100.00;97768.41;5117598;27;20430;-74
2023/09/06 09:09:56;;;;;;;4.88;3.42;;;;;;;20.70;100.00;97765.56;5130604;27;20406;-74
2023/09/06 09:12:26;;;;;;;4.85;3.55;;;;;;;20.78;100.00;97769.41;5130805;27;20532;-73
2023/09/06 09:14:54;;;;;;;5.13;3.15;;;;;;;20.88;100.00;97771.06;5130998;27;20395;-74
2023/09/06 09:17:21;;;;;;;4.38;3.22;;;;;;;20.98;100.00;97771.59;5134477;27;20399;-74
2023/09/06 09:19:49;;;;;;;4.53;2.90;;;;;;;21.07;100.00;97774.31;5128332;27;20423;-73
2023/09/06 09:22:22;;;;;;;3.83;2.97;;;;;;;21.18;100.00;97770.31;5120737;27;20422;-74
2023/09/06 09:24:48;;;;;;;4.00;3.08;;;;;;;21.30;100.00;97775.91;5122800;27;20491;-75
2023/09/06 09:27:15;;;;;;;4.65;3.00;;;;;;;21.44;100.00;97773.09;5121089;27;20398;-74
2023/09/06 09:29:44;;;;;;;5.72;3.50;;;;;;;21.63;100.00;97770.94;5133863;27;20410;-75
2023/09/06 09:32:13;;;;;;;5.25;3.40;;;;;;;21.87;100.00;97771.31;5134533;27;20883;-74
2023/09/06 09:34:41;;;;;;;8.52;4.85;;;;;;;22.08;100.00;97771.53;5134538;27;20451;-74
2023/09/06 09:37:08;;;;;;;5.88;3.90;;;;;;;22.41;100.00;97771.84;5134552;27;20477;-74
2023/09/06 09:39:37;;;;;;;5.13;3.45;;;;;;;22.72;100.00;97772.44;5134645;27;20406;-73
2023/09/06 09:42:05;;;;;;;25.90;5.63;;;;;;;22.86;100.00;97768.78;5134517;27;20386;-74
2023/09/06 09:44:31;;;;;;;7.93;3.65;;;;;;;23.11;100.00;97776.03;5134476;27;20416;-74
2023/09/06 09:47:07;;;;;;;9.98;4.25;;;;;;;23.28;100.00;97765.19;5134597;27;20440;-74
2023/09/06 09:49:34;;;;;;;7.07;4.07;;;;;;;23.44;100.00;97763.53;5134562;27;20414;-74
2023/09/06 09:52:01;;;;;;;6.50;3.63;;;;;;;23.60;100.00;97766.50;5133951;27;20452;-74
2023/09/06 09:54:33;;;;;;;5.53;3.23;;;;;;;23.72;100.00;97758.47;5134322;27;20407;-74
2023/09/06 09:57:07;;;;;;;6.85;3.33;;;;;;;23.79;100.00;97756.06;5134310;27;20931;-74
2023/09/06 09:59:37;;;;;;;4.07;3.07;;;;;;;23.82;100.00;97758.13;5133974;27;20406;-74
2023/09/06 10:02:05;;;;;;;4.50;3.13;;;;;;;23.86;100.00;97756.31;5134327;27;20736;-75
2023/09/06 10:04:36;;;;;;;4.27;3.07;;;;;;;23.93;100.00;97761.22;5134141;27;20404;-74
2023/09/06 10:07:08;;;;;;;7.30;3.83;;;;;;;24.03;100.00;97763.53;5133288;27;20784;-74
2023/09/06 10:09:38;;;;;;;5.00;3.30;;;;;;;24.12;100.00;97760.78;5125561;27;20859;-74
2023/09/06 10:12:08;;;;;;;5.45;3.42;;;;;;;24.15;100.00;97763.59;5114658;27;20430;-74
2023/09/06 10:14:35;;;;;;;3.72;2.97;;;;;;;24.20;100.00;97771.56;5129017;27;20405;-74
2023/09/06 10:17:02;;;;;;;6.88;4.20;;;;;;;24.19;100.00;97758.31;5123647;27;20400;-74
2023/09/06 10:19:29;;;;;;;10.93;6.70;;;;;;;24.13;100.00;97767.78;5122531;27;20412;-74
2023/09/06 10:21:55;;;;;;;9.23;6.00;;;;;;;24.14;100.00;97764.72;5133945;27;20864;-74
2023/09/06 10:24:23;;;;;;;5.15;4.13;;;;;;;24.13;100.00;97757.72;5133945;27;20620;-74
2023/09/06 10:26:53;;;;;;;6.78;4.05;;;;;;;24.05;100.00;97755.88;5133455;27;20394;-74
2023/09/06 10:29:24;;;;;;;5.78;3.47;;;;;;;24.10;100.00;97760.28;5134145;27;20398;-74
2023/09/06 10:31:52;;;;;;;5.53;3.88;;;;;;;24.09;100.00;97756.00;5133749;27;20845;-74
2023/09/06 10:34:18;;;;;;;5.85;3.75;;;;;;;24.09;100.00;97756.81;5133972;27;20424;-74
2023/09/06 10:36:51;;;;;;;6.83;3.77;;;;;;;24.08;100.00;97755.22;5133563;27;20395;-74
2023/09/06 10:39:21;;;;;;;7.13;3.92;;;;;;;24.05;100.00;97758.59;5133652;27;20478;-74
2023/09/06 10:42:15;;;;;;;7.43;3.50;;;;;;;23.97;100.00;97751.34;5133417;27;20430;-74
2023/09/06 10:45:21;;;;;;;4.63;3.23;;;;;;;24.02;100.00;97740.31;5133296;27;20402;-74
2023/09/06 10:47:49;;;;;;;4.55;3.65;;;;;;;24.09;100.00;97745.19;5133473;27;20402;-74
2023/09/06 10:50:20;;;;;;;6.22;3.05;;;;;;;24.11;100.00;97751.06;5132686;27;20405;-74
2023/09/06 10:52:51;;;;;;;4.47;3.17;;;;;;;24.14;100.00;97748.47;5128219;27;20542;-75
2023/09/06 10:55:20;;;;;;;8.55;4.00;;;;;;;24.05;100.00;97749.69;5121305;27;20396;-74
2023/09/06 10:58:06;;;;;;;6.90;4.07;;;;;;;24.13;100.00;97744.19;5119764;27;20463;-74
2023/09/06 11:00:34;;;;;;;7.93;4.63;;;;;;;24.06;100.00;97740.44;5123921;27;20425;-72
2023/09/06 11:03:21;;;;;;;5.80;4.03;;;;;;;24.19;100.00;97736.69;5125071;27;20418;-73
2023/09/06 11:05:55;;;;;;;4.13;3.42;;;;;;;24.32;100.00;97732.94;5124811;27;20479;-73
2023/09/06 11:08:29;;;;;;;5.82;3.58;;;;;;;24.43;100.00;97736.84;5128678;27;20395;-74
2023/09/06 11:11:00;;;;;;;4.22;3.25;;;;;;;24.52;100.00;97734.03;5124847;27;20797;-75
2023/09/06 11:13:32;;;;;;;4.15;3.03;;;;;;;24.61;100.00;97738.22;5125416;27;20430;-74
2023/09/06 11:15:59;;;;;;;4.53;3.50;;;;;;;24.72;100.00;97735.91;5122339;27;20869;-74
2023/09/06 11:18:28;;;;;;;5.30;3.00;;;;;;;24.82;100.00;97732.75;5125370;27;20401;-74
2023/09/06 11:20:55;;;;;;;3.97;3.22;;;;;;;24.91;100.00;97730.78;5118805;27;20446;-73
2023/09/06 11:23:22;;;;;;;4.47;3.10;;;;;;;25.05;100.00;97723.13;5122909;27;20391;-72
2023/09/06 11:25:57;;;;;;;3.92;3.30;;;;;;;25.04;100.00;97724.25;5129531;27;20532;-73
2023/09/06 11:28:23;;;;;;;6.10;3.58;;;;;;;25.12;100.00;97727.97;5126657;27;20406;-73